createdAt,value
2023-04-10T00:00:13.459Z,100382.31
2023-04-10T00:02:42.755Z,100383.88
2023-04-10T00:05:12.536Z,100378.75
2023-04-10T00:07:40.754Z,100381.09
2023-04-10T00:10:09.313Z,100372.63
2023-04-10T00:12:37.949Z,100378.16
2023-04-10T00:15:06.546Z,100377.28
2023-04-10T00:17:34.425Z,100374.72
2023-04-10T00:20:02.401Z,100375.31
2023-04-10T00:22:32.808Z,100361.75
2023-04-10T00:25:00.680Z,100365.72
2023-04-10T00:27:28.575Z,100362.03
2023-04-10T00:29:56.438Z,100363.78
2023-04-10T00:32:24.752Z,100366.28
2023-04-10T00:34:53.061Z,100362.72
2023-04-10T00:37:21.472Z,100363.50
2023-04-10T00:39:50.710Z,100365.69
2023-04-10T00:42:18.590Z,100359.59
2023-04-10T00:44:46.565Z,100364.44
2023-04-10T00:47:15.914Z,100370.06
2023-04-10T00:49:45.020Z,100376.41
2023-04-10T00:52:13.061Z,100376.25
2023-04-10T00:54:41.355Z,100370.09
2023-04-10T00:57:11.072Z,100367.50
2023-04-10T00:59:40.202Z,100365.53
2023-04-10T01:02:08.258Z,100367.25
2023-04-10T01:04:36.326Z,100364.50
2023-04-10T01:07:10.699Z,100365.22
2023-04-10T01:09:48.412Z,100364.19
2023-04-10T01:12:34.944Z,100370.66
2023-04-10T01:15:07.525Z,100373.91
2023-04-10T01:17:43.583Z,100369.56
2023-04-10T01:20:14.693Z,100371.97
2023-04-10T01:22:52.877Z,100367.69
2023-04-10T01:25:39.473Z,100362.38
2023-04-10T01:28:22.843Z,100373.13
2023-04-10T01:30:54.933Z,100372.88
2023-04-10T01:33:40.778Z,100376.06
2023-04-10T01:36:11.090Z,100369.97
2023-04-10T01:38:43.558Z,100369.13
2023-04-10T01:41:12.030Z,100363.13
2023-04-10T01:43:42.618Z,100361.41
2023-04-10T01:46:13.780Z,100366.38
2023-04-10T01:48:42.655Z,100362.81
2023-04-10T01:51:11.881Z,100357.50
2023-04-10T01:53:40.784Z,100367.44
2023-04-10T01:56:10.149Z,100372.16
2023-04-10T01:58:44.833Z,100369.28
2023-04-10T02:01:29.155Z,100370.06
2023-04-10T02:03:58.834Z,100367.22
2023-04-10T02:06:37.287Z,100361.16
2023-04-10T02:09:13.628Z,100364.41
2023-04-10T02:11:48.351Z,100367.16
2023-04-10T02:14:21.644Z,100365.97
2023-04-10T02:16:54.367Z,100373.31
2023-04-10T02:19:24.600Z,100365.78
2023-04-10T02:21:53.573Z,100369.06
2023-04-10T02:24:22.183Z,100365.63
2023-04-10T02:26:51.938Z,100370.94
2023-04-10T02:29:20.128Z,100368.53
2023-04-10T02:31:48.188Z,100367.25
2023-04-10T02:34:17.527Z,100365.56
2023-04-10T02:36:45.402Z,100362.03
2023-04-10T02:39:13.906Z,100370.75
2023-04-10T02:41:51.011Z,100359.56
2023-04-10T02:44:19.282Z,100345.56
2023-04-10T02:46:47.293Z,100358.66
2023-04-10T02:49:17.791Z,100358.91
2023-04-10T02:51:46.020Z,100365.31
2023-04-10T02:54:13.976Z,100370.78
2023-04-10T02:56:43.869Z,100369.00
2023-04-10T02:59:12.190Z,100364.03
2023-04-10T03:01:40.816Z,100369.66
2023-04-10T03:04:09.301Z,100368.81
2023-04-10T03:06:41.713Z,100363.75
2023-04-10T03:09:09.833Z,100368.81
2023-04-10T03:11:37.794Z,100368.03
2023-04-10T03:14:05.829Z,100362.97
2023-04-10T03:16:33.944Z,100360.31
2023-04-10T03:19:04.472Z,100355.19
2023-04-10T03:21:32.892Z,100358.34
2023-04-10T03:24:02.768Z,100348.94
2023-04-10T03:26:30.752Z,100362.03
2023-04-10T03:28:58.943Z,100359.06
2023-04-10T03:31:26.802Z,100357.63
2023-04-10T03:33:58.601Z,100363.69
2023-04-10T03:36:27.549Z,100357.19
2023-04-10T03:38:55.432Z,100363.69
2023-04-10T03:41:25.727Z,100355.13
2023-04-10T03:43:54.424Z,100365.06
2023-04-10T03:46:23.072Z,100358.03
2023-04-10T03:48:54.114Z,100359.38
2023-04-10T03:51:23.480Z,100346.44
2023-04-10T03:53:52.253Z,100355.75
2023-04-10T03:56:20.426Z,100358.19
2023-04-10T03:58:49.901Z,100350.66
2023-04-10T04:01:17.788Z,100359.88
2023-04-10T04:03:59.125Z,100366.53
2023-04-10T04:06:48.634Z,100368.97
2023-04-10T04:09:34.919Z,100377.16
2023-04-10T04:12:19.393Z,100371.34
2023-04-10T04:15:14.735Z,100377.16
2023-04-10T04:17:55.881Z,100380.56
2023-04-10T04:20:42.749Z,100375.44
2023-04-10T04:23:43.239Z,100376.78
2023-04-10T04:26:24.831Z,100379.09
2023-04-10T04:29:11.607Z,100384.72
2023-04-10T04:31:55.130Z,100385.69
2023-04-10T04:34:48.789Z,100386.00
2023-04-10T04:37:31.167Z,100376.84
2023-04-10T04:40:17.553Z,100383.31
2023-04-10T04:43:05.704Z,100386.97
2023-04-10T04:45:59.904Z,100390.22
2023-04-10T04:48:51.972Z,100390.47
2023-04-10T04:51:25.836Z,100392.78
2023-04-10T04:54:13.053Z,100392.19
2023-04-10T04:56:59.393Z,100392.78
2023-04-10T04:59:50.399Z,100401.94
2023-04-10T05:02:36.792Z,100402.63
2023-04-10T05:05:23.450Z,100399.56
2023-04-10T05:08:10.734Z,100398.06
2023-04-10T05:11:04.711Z,100401.56
2023-04-10T05:13:51.281Z,100406.25
2023-04-10T05:16:37.747Z,100385.78
2023-04-10T05:19:41.587Z,100403.16
2023-04-10T05:22:19.218Z,100398.28
2023-04-10T05:25:13.162Z,100416.44
2023-04-10T05:27:59.162Z,100415.13
2023-04-10T05:30:59.248Z,100415.44
2023-04-10T05:33:39.100Z,100416.50
2023-04-10T05:36:19.139Z,100422.31
2023-04-10T05:39:15.679Z,100407.22
2023-04-10T05:42:13.382Z,100409.81
2023-04-10T05:44:51.181Z,100414.09
2023-04-10T05:47:48.295Z,100422.84
2023-04-10T05:50:39.250Z,100413.91
2023-04-10T05:53:14.446Z,100417.03
2023-04-10T05:56:10.021Z,100415.66
2023-04-10T05:58:58.267Z,100415.97
2023-04-10T06:01:41.847Z,100426.09
2023-04-10T06:04:10.390Z,100424.53
2023-04-10T06:06:41.953Z,100415.63
2023-04-10T06:09:11.545Z,100419.94
2023-04-10T06:11:41.095Z,100423.66
2023-04-10T06:14:09.684Z,100428.22
2023-04-10T06:16:43.229Z,100423.50
2023-04-10T06:19:11.240Z,100424.66
2023-04-10T06:21:39.179Z,100424.84
2023-04-10T06:24:07.751Z,100418.47
2023-04-10T06:26:35.722Z,100418.75
2023-04-10T06:29:06.196Z,100410.56
2023-04-10T06:31:35.453Z,100407.78
2023-04-10T06:34:03.689Z,100413.94
2023-04-10T06:36:33.012Z,100415.97
2023-04-10T06:39:05.766Z,100408.75
2023-04-10T06:41:34.143Z,100415.63
2023-04-10T06:44:18.418Z,100416.06
2023-04-10T06:46:46.544Z,100413.13
2023-04-10T06:49:14.416Z,100419.25
2023-04-10T06:51:42.386Z,100417.16
2023-04-10T06:54:10.186Z,100419.34
2023-04-10T06:56:38.077Z,100414.06
2023-04-10T06:59:06.320Z,100412.78
2023-04-10T07:01:35.844Z,100408.88
2023-04-10T07:04:03.877Z,100407.41
2023-04-10T07:06:32.389Z,100410.13
2023-04-10T07:09:00.385Z,100403.78
2023-04-10T07:11:28.251Z,100406.59
2023-04-10T07:13:58.424Z,100401.06
2023-04-10T07:16:27.619Z,100398.72
2023-04-10T07:18:57.269Z,100400.84
2023-04-10T07:21:27.156Z,100414.41
2023-04-10T07:23:55.474Z,100409.00
2023-04-10T07:26:23.376Z,100403.53
2023-04-10T07:28:51.339Z,100406.41
2023-04-10T07:31:19.370Z,100405.81
2023-04-10T07:33:47.636Z,100406.97
2023-04-10T07:36:17.105Z,100407.25
2023-04-10T07:38:45.036Z,100395.03
2023-04-10T07:41:13.110Z,100395.31
2023-04-10T07:43:41.502Z,100392.25
2023-04-10T07:46:09.357Z,100389.88
2023-04-10T07:48:37.310Z,100389.25
2023-04-10T07:51:09.154Z,100391.88
2023-04-10T07:53:38.498Z,100392.09
2023-04-10T07:56:07.524Z,100389.84
2023-04-10T07:58:36.057Z,100379.81
2023-04-10T08:01:04.002Z,100393.53
2023-04-10T08:03:32.138Z,100384.56
2023-04-10T08:06:00.146Z,100379.56
2023-04-10T08:08:28.091Z,100378.22
2023-04-10T08:10:57.349Z,100381.00
2023-04-10T08:13:25.274Z,100385.53
2023-04-10T08:15:53.155Z,100383.13
2023-04-10T08:18:21.244Z,100377.50
2023-04-10T08:20:49.196Z,100380.19
2023-04-10T08:23:20.721Z,100377.13
2023-04-10T08:25:49.083Z,100373.06
2023-04-10T08:28:19.512Z,100358.94
2023-04-10T08:30:47.546Z,100376.03
2023-04-10T08:33:15.522Z,100369.66
2023-04-10T08:35:43.427Z,100372.19
2023-04-10T08:38:13.982Z,100364.09
2023-04-10T08:40:42.800Z,100360.09
2023-04-10T08:43:14.279Z,100351.66
2023-04-10T08:45:43.705Z,100356.94
2023-04-10T08:48:12.651Z,100357.84
2023-04-10T08:50:44.189Z,100343.13
2023-04-10T08:53:13.925Z,100344.59
2023-04-10T08:55:42.799Z,100329.91
2023-04-10T08:58:13.732Z,100337.09
2023-04-10T09:00:42.973Z,100340.00
2023-04-10T09:03:14.182Z,100338.50
2023-04-10T09:05:42.490Z,100336.97
2023-04-10T09:08:12.129Z,100341.41
2023-04-10T09:10:40.271Z,100334.88
2023-04-10T09:13:08.140Z,100331.13
2023-04-10T09:15:58.303Z,100333.31
2023-04-10T09:18:42.656Z,100324.47
2023-04-10T09:21:12.026Z,100334.69
2023-04-10T09:23:40.470Z,100329.78
2023-04-10T09:26:24.592Z,100334.91
2023-04-10T09:29:02.980Z,100320.41
2023-04-10T09:31:37.258Z,100328.94
2023-04-10T09:34:13.130Z,100317.22
2023-04-10T09:36:44.687Z,100308.16
2023-04-10T09:39:13.491Z,100312.31
2023-04-10T09:41:52.723Z,100310.78
2023-04-10T09:44:30.879Z,100311.97
2023-04-10T09:47:00.865Z,100299.81
2023-04-10T09:49:28.811Z,100303.00
2023-04-10T09:51:56.658Z,100301.00
2023-04-10T09:54:38.013Z,100291.22
2023-04-10T09:57:08.379Z,100291.88
2023-04-10T09:59:41.210Z,100284.59
2023-04-10T10:02:12.397Z,100273.75
2023-04-10T10:04:43.582Z,100269.59
2023-04-10T10:07:11.478Z,100269.81
2023-04-10T10:09:39.678Z,100270.88
2023-04-10T10:12:09.967Z,100273.50
2023-04-10T10:14:45.600Z,100256.00
2023-04-10T10:17:17.692Z,100254.66
2023-04-10T10:19:54.758Z,100253.97
2023-04-10T10:22:24.606Z,100248.31
2023-04-10T10:24:56.636Z,100252.81
2023-04-10T10:27:26.195Z,100248.13
2023-04-10T10:29:55.365Z,100225.28
2023-04-10T10:32:25.239Z,100250.13
2023-04-10T10:34:53.906Z,100233.56
2023-04-10T10:37:22.220Z,100240.56
2023-04-10T10:39:58.634Z,100232.69
2023-04-10T10:42:34.058Z,100236.13
2023-04-10T10:45:11.362Z,100224.91
2023-04-10T10:47:44.938Z,100221.38
2023-04-10T10:50:12.935Z,100237.72
2023-04-10T10:52:46.464Z,100237.72
2023-04-10T10:55:38.446Z,100227.41
2023-04-10T10:58:08.169Z,100223.09
2023-04-10T11:01:18.843Z,100219.69
2023-04-10T11:03:48.518Z,100215.59
2023-04-10T11:06:19.430Z,100201.72
2023-04-10T11:08:48.468Z,100199.53
2023-04-10T11:11:18.607Z,100196.44
2023-04-10T11:14:20.273Z,100206.69
2023-04-10T11:16:48.840Z,100204.16
2023-04-10T11:19:22.651Z,100201.72
2023-04-10T11:22:07.342Z,100184.03
2023-04-10T11:25:01.817Z,100178.25
2023-04-10T11:27:46.262Z,100186.13
2023-04-10T11:30:28.158Z,100179.59
2023-04-10T11:32:56.454Z,100176.19
2023-04-10T11:35:27.051Z,100168.78
2023-04-10T11:38:09.993Z,100157.31
2023-04-10T11:40:54.782Z,100156.03
2023-04-10T11:43:22.818Z,100154.59
2023-04-10T11:45:50.937Z,100156.38
2023-04-10T11:48:19.041Z,100141.16
2023-04-10T11:50:48.369Z,100151.28
2023-04-10T11:53:20.258Z,100141.25
2023-04-10T11:55:48.276Z,100148.69
2023-04-10T11:58:23.966Z,100143.59
2023-04-10T12:01:02.697Z,100138.50
2023-04-10T12:03:35.766Z,100140.91
2023-04-10T12:06:07.529Z,100140.91
2023-04-10T12:08:36.613Z,100127.38
2023-04-10T12:11:04.565Z,100135.81
2023-04-10T12:13:33.077Z,100141.66
2023-04-10T12:16:02.294Z,100138.28
2023-04-10T12:18:30.889Z,100123.91
2023-04-10T12:20:59.781Z,100130.59
2023-04-10T12:23:31.042Z,100119.69
2023-04-10T12:26:13.779Z,100121.34
2023-04-10T12:28:43.452Z,100115.31
2023-04-10T12:31:11.674Z,100111.78
2023-04-10T12:33:40.609Z,100115.03
2023-04-10T12:36:21.377Z,100106.66
2023-04-10T12:38:50.780Z,100104.38
2023-04-10T12:41:24.466Z,100104.56
2023-04-10T12:43:54.112Z,100101.34
2023-04-10T12:46:26.137Z,100097.13
2023-04-10T12:48:54.359Z,100096.97
2023-04-10T12:51:43.303Z,100101.09
2023-04-10T12:54:13.214Z,100101.91
2023-04-10T12:56:45.802Z,100096.09
2023-04-10T12:59:13.638Z,100083.44
2023-04-10T13:01:41.712Z,100085.13
2023-04-10T13:04:09.795Z,100084.28
2023-04-10T13:06:43.995Z,100071.84
2023-04-10T13:09:13.546Z,100075.31
2023-04-10T13:11:41.756Z,100071.94
2023-04-10T13:14:11.145Z,100068.66
2023-04-10T13:16:39.200Z,100056.94
2023-04-10T13:19:07.212Z,100052.03
2023-04-10T13:21:35.129Z,100061.72
2023-04-10T13:24:03.202Z,100053.22
2023-04-10T13:26:32.558Z,100052.91
2023-04-10T13:29:00.466Z,100051.38
2023-04-10T13:31:30.925Z,100044.09
2023-04-10T13:33:58.891Z,100040.78
2023-04-10T13:36:27.362Z,100045.03
2023-04-10T13:38:55.522Z,100037.69
2023-04-10T13:41:24.392Z,100035.34
2023-04-10T13:43:53.961Z,100030.50
2023-04-10T13:46:22.213Z,100029.84
2023-04-10T13:48:50.186Z,100029.16
2023-04-10T13:51:18.570Z,100015.75
2023-04-10T13:53:46.434Z,100007.47
2023-04-10T13:56:14.443Z,100014.19
2023-04-10T13:58:42.328Z,100017.66
2023-04-10T14:01:12.419Z,100010.13
2023-04-10T14:03:40.528Z,100007.72
2023-04-10T14:06:11.029Z,99991.78
2023-04-10T14:08:39.071Z,99992.66
2023-04-10T14:11:07.671Z,99978.34
2023-04-10T14:13:35.631Z,99983.28
2023-04-10T14:16:04.191Z,99979.78
2023-04-10T14:18:33.578Z,99984.72
2023-04-10T14:21:01.523Z,99980.38
2023-04-10T14:23:29.444Z,99979.31
2023-04-10T14:25:57.299Z,99975.75
2023-04-10T14:28:25.234Z,99978.56
2023-04-10T14:30:53.188Z,99967.75
2023-04-10T14:33:21.573Z,99968.59
2023-04-10T14:35:50.931Z,99967.03
2023-04-10T14:38:18.966Z,99948.66
2023-04-10T14:40:50.031Z,99947.06
2023-04-10T14:43:19.437Z,99948.78
2023-04-10T14:45:47.670Z,99947.97
2023-04-10T14:48:15.979Z,99942.09
2023-04-10T14:50:44.026Z,99944.59
2023-04-10T14:53:13.332Z,99933.63
2023-04-10T14:55:41.269Z,99936.16
2023-04-10T14:58:11.098Z,99935.31
2023-04-10T15:00:39.105Z,99926.88
2023-04-10T15:03:08.684Z,99922.59
2023-04-10T15:05:36.981Z,99922.50
2023-04-10T15:08:05.069Z,99914.09
2023-04-10T15:10:34.352Z,99914.09
2023-04-10T15:13:02.243Z,99907.41
2023-04-10T15:15:30.147Z,99909.03
2023-04-10T15:17:58.230Z,99908.25
2023-04-10T15:20:26.236Z,99908.28
2023-04-10T15:22:54.358Z,99903.25
2023-04-10T15:25:22.291Z,99909.19
2023-04-10T15:27:51.540Z,99909.16
2023-04-10T15:30:19.556Z,99905.78
2023-04-10T15:32:47.521Z,99904.06
2023-04-10T15:35:15.418Z,99894.81
2023-04-10T15:37:43.411Z,99892.25
2023-04-10T15:40:11.790Z,99893.13
2023-04-10T15:42:39.731Z,99891.44
2023-04-10T15:45:09.385Z,99890.59
2023-04-10T15:47:37.349Z,99890.59
2023-04-10T15:50:05.982Z,99892.28
2023-04-10T15:52:33.943Z,99893.97
2023-04-10T15:55:01.954Z,99886.38
2023-04-10T15:57:29.917Z,99887.22
2023-04-10T16:00:00.415Z,99891.44
2023-04-10T16:02:29.886Z,99885.53
2023-04-10T16:04:59.424Z,99891.44
2023-04-10T16:07:27.411Z,99884.69
2023-04-10T16:09:56.715Z,99889.75
2023-04-10T16:12:24.608Z,99877.94
2023-04-10T16:14:52.559Z,99880.47
2023-04-10T16:17:20.436Z,99892.25
2023-04-10T16:19:49.692Z,99880.47
2023-04-10T16:22:17.534Z,99880.44
2023-04-10T16:24:45.540Z,99877.06
2023-04-10T16:27:13.515Z,99887.97
2023-04-10T16:29:41.518Z,99877.00
2023-04-10T16:32:09.415Z,99875.34
2023-04-10T16:34:37.389Z,99872.84
2023-04-10T16:37:06.782Z,99883.75
2023-04-10T16:39:34.738Z,99877.00
2023-04-10T16:42:03.600Z,99880.38
2023-04-10T16:44:31.698Z,99861.78
2023-04-10T16:46:59.781Z,99878.63
2023-04-10T16:49:27.760Z,99883.63
2023-04-10T16:51:55.728Z,99875.19
2023-04-10T16:54:24.964Z,99881.84
2023-04-10T16:56:52.927Z,99890.94
2023-04-10T16:59:20.790Z,99876.50
2023-04-10T17:01:48.731Z,99889.81
2023-04-10T17:04:18.051Z,99886.28
2023-04-10T17:06:46.140Z,99886.13
2023-04-10T17:09:14.119Z,99881.72
2023-04-10T17:11:43.530Z,99879.84
2023-04-10T17:14:13.369Z,99872.06
2023-04-10T17:16:41.423Z,99883.66
2023-04-10T17:19:09.375Z,99886.88
2023-04-10T17:21:37.331Z,99877.50
2023-04-10T17:24:05.441Z,99882.41
2023-04-10T17:26:33.465Z,99880.59
2023-04-10T17:29:02.690Z,99880.44
2023-04-10T17:31:31.392Z,99879.50
2023-04-10T17:33:59.407Z,99875.91
2023-04-10T17:36:27.955Z,99874.97
2023-04-10T17:38:56.048Z,99870.63
2023-04-10T17:41:24.341Z,99880.53
2023-04-10T17:43:52.245Z,99874.53
2023-04-10T17:46:21.554Z,99883.63
2023-04-10T17:48:49.487Z,99880.19
2023-04-10T17:51:17.391Z,99869.16
2023-04-10T17:53:46.194Z,99875.78
2023-04-10T17:56:19.625Z,99880.72
2023-04-10T17:58:47.952Z,99876.38
2023-04-10T18:01:23.778Z,99886.31
2023-04-10T18:03:52.014Z,99882.75
2023-04-10T18:06:20.032Z,99881.81
2023-04-10T18:08:47.945Z,99883.38
2023-04-10T18:11:15.980Z,99873.19
2023-04-10T18:13:43.872Z,99883.22
2023-04-10T18:16:12.022Z,99888.97
2023-04-10T18:18:41.929Z,99886.34
2023-04-10T18:21:10.431Z,99896.25
2023-04-10T18:23:39.540Z,99893.75
2023-04-10T18:26:08.157Z,99891.13
2023-04-10T18:28:37.764Z,99891.88
2023-04-10T18:31:06.448Z,99891.78
2023-04-10T18:33:34.753Z,99894.19
2023-04-10T18:36:03.992Z,99898.22
2023-04-10T18:38:31.906Z,99899.81
2023-04-10T18:40:59.810Z,99909.72
2023-04-10T18:43:28.390Z,99903.78
2023-04-10T18:45:56.654Z,99905.38
2023-04-10T18:48:24.616Z,99906.19
2023-04-10T18:50:53.707Z,99904.47
2023-04-10T18:53:23.388Z,99907.69
2023-04-10T18:55:52.528Z,99901.69
2023-04-10T18:58:21.068Z,99904.16
2023-04-10T19:00:49.276Z,99904.22
2023-04-10T19:03:17.480Z,99903.50
2023-04-10T19:05:45.731Z,99915.16
2023-04-10T19:08:14.527Z,99893.94
2023-04-10T19:10:43.989Z,99909.09
2023-04-10T19:13:13.321Z,99914.22
2023-04-10T19:15:43.203Z,99914.19
2023-04-10T19:18:13.044Z,99912.50
2023-04-10T19:20:52.505Z,99920.78
2023-04-10T19:23:21.821Z,99925.72
2023-04-10T19:25:54.341Z,99912.16
2023-04-10T19:28:24.001Z,99920.34
2023-04-10T19:30:52.267Z,99921.22
2023-04-10T19:33:20.430Z,99920.41
2023-04-10T19:35:48.633Z,99922.03
2023-04-10T19:38:16.640Z,99925.22
2023-04-10T19:40:45.365Z,99921.72
2023-04-10T19:43:14.710Z,99925.94
2023-04-10T19:45:42.876Z,99913.31
2023-04-10T19:48:11.924Z,99913.25
2023-04-10T19:50:39.854Z,99912.34
2023-04-10T19:53:07.863Z,99905.56
2023-04-10T19:55:36.097Z,99911.34
2023-04-10T19:58:04.040Z,99898.00
2023-04-10T20:00:33.307Z,99903.13
2023-04-10T20:03:01.479Z,99902.28
2023-04-10T20:05:30.340Z,99899.78
2023-04-10T20:07:58.260Z,99899.78
2023-04-10T20:10:26.255Z,99898.88
2023-04-10T20:12:54.080Z,99906.31
2023-04-10T20:15:21.988Z,99903.78
2023-04-10T20:17:51.275Z,99899.44
2023-04-10T20:20:19.213Z,99905.13
2023-04-10T20:22:47.119Z,99901.63
2023-04-10T20:25:14.985Z,99895.56
2023-04-10T20:27:42.873Z,99896.31
2023-04-10T20:30:11.439Z,99888.66
2023-04-10T20:32:39.393Z,99890.31
2023-04-10T20:35:10.397Z,99889.50
2023-04-10T20:37:38.250Z,99871.81
2023-04-10T20:40:07.322Z,99878.44
2023-04-10T20:42:35.215Z,99880.00
2023-04-10T20:45:03.527Z,99874.13
2023-04-10T20:47:31.603Z,99878.28
2023-04-10T20:49:59.579Z,99874.09
2023-04-10T20:52:28.874Z,99875.03
2023-04-10T20:54:56.764Z,99870.97
2023-04-10T20:57:24.730Z,99867.66
2023-04-10T20:59:52.608Z,99870.97
2023-04-10T21:02:20.651Z,99873.41
2023-04-10T21:04:48.620Z,99867.50
2023-04-10T21:07:16.475Z,99869.03
2023-04-10T21:09:45.768Z,99860.53
2023-04-10T21:12:13.764Z,99856.22
2023-04-10T21:14:41.678Z,99853.66
2023-04-10T21:17:09.597Z,99858.63
2023-04-10T21:19:37.489Z,99864.38
2023-04-10T21:22:05.464Z,99856.91
2023-04-10T21:24:33.339Z,99855.31
2023-04-10T21:27:02.687Z,99855.28
2023-04-10T21:29:30.605Z,99846.91
2023-04-10T21:31:58.528Z,99859.44
2023-04-10T21:34:26.510Z,99849.19
2023-04-10T21:36:55.410Z,99845.56
2023-04-10T21:39:23.341Z,99842.78
2023-04-10T21:41:51.152Z,99840.25
2023-04-10T21:44:21.071Z,99836.97
2023-04-10T21:46:48.910Z,99836.97
2023-04-10T21:49:16.848Z,99840.28
2023-04-10T21:51:44.806Z,99829.38
2023-04-10T21:54:12.740Z,99831.78
2023-04-10T21:56:41.383Z,99834.28
2023-04-10T21:59:09.242Z,99829.28
2023-04-10T22:01:41.513Z,99826.84
2023-04-10T22:04:09.591Z,99822.53
2023-04-10T22:06:38.588Z,99828.34
2023-04-10T22:09:06.472Z,99833.25
2023-04-10T22:11:36.021Z,99837.97
2023-04-10T22:14:15.795Z,99832.91
2023-04-10T22:16:45.725Z,99825.31
2023-04-10T22:19:13.647Z,99830.22
2023-04-10T22:21:41.569Z,99824.25
2023-04-10T22:24:09.626Z,99827.53
2023-04-10T22:26:37.505Z,99820.75
2023-04-10T22:29:05.452Z,99820.53
2023-04-10T22:31:33.323Z,99812.94
2023-04-10T22:34:02.545Z,99816.25
2023-04-10T22:36:33.319Z,99811.25
2023-04-10T22:39:01.281Z,99811.19
2023-04-10T22:41:29.281Z,99812.84
2023-04-10T22:43:57.299Z,99796.84
2023-04-10T22:46:25.353Z,99802.59
2023-04-10T22:48:54.918Z,99813.97
2023-04-10T22:51:24.412Z,99802.97
2023-04-10T22:53:52.251Z,99805.31
2023-04-10T22:56:24.898Z,99805.13
2023-04-10T22:58:53.417Z,99805.88
2023-04-10T23:01:21.541Z,99802.56
2023-04-10T23:03:52.834Z,99792.47
2023-04-10T23:06:21.184Z,99795.59
2023-04-10T23:08:52.174Z,99783.00
2023-04-10T23:11:20.221Z,99780.41
2023-04-10T23:13:48.810Z,99775.22
2023-04-10T23:16:16.757Z,99778.47
2023-04-10T23:18:44.825Z,99775.03
2023-04-10T23:21:12.765Z,99774.94
2023-04-10T23:23:40.758Z,99771.44
2023-04-10T23:26:11.296Z,99759.59
2023-04-10T23:28:39.230Z,99756.19
2023-04-10T23:31:09.048Z,99759.38
2023-04-10T23:33:37.130Z,99754.38
2023-04-10T23:36:05.818Z,99757.69
2023-04-10T23:38:33.899Z,99757.47
2023-04-10T23:41:02.945Z,99750.28
2023-04-10T23:43:32.291Z,99743.53
2023-04-10T23:46:00.301Z,99731.22
2023-04-10T23:48:28.228Z,99740.50
2023-04-10T23:51:04.303Z,99735.63
2023-04-10T23:53:32.383Z,99742.28
2023-04-10T23:56:00.302Z,99727.09
2023-04-10T23:58:28.312Z,99730.22
